sensor_id;sensor_type;location;lat;lon;timestamp;temperature;humidity
12089;DHT22;6107;49.078;8.578;2023-04-25T00:00:30;8.60;99.90
12089;DHT22;6107;49.078;8.578;2023-04-25T00:02:55;8.50;99.90
12089;DHT22;6107;49.078;8.578;2023-04-25T00:05:22;8.50;99.90
12089;DHT22;6107;49.078;8.578;2023-04-25T00:07:49;8.30;99.90
12089;DHT22;6107;49.078;8.578;2023-04-25T00:10:15;8.40;99.90
12089;DHT22;6107;49.078;8.578;2023-04-25T00:12:41;8.30;99.90
12089;DHT22;6107;49.078;8.578;2023-04-25T00:15:07;8.20;99.90
12089;DHT22;6107;49.078;8.578;2023-04-25T00:17:33;8.30;99.90
12089;DHT22;6107;49.078;8.578;2023-04-25T00:20:00;8.40;99.90
12089;DHT22;6107;49.078;8.578;2023-04-25T00:22:26;8.40;99.90
12089;DHT22;6107;49.078;8.578;2023-04-25T00:24:51;8.50;99.90
12089;DHT22;6107;49.078;8.578;2023-04-25T00:27:18;8.30;99.90
12089;DHT22;6107;49.078;8.578;2023-04-25T00:29:44;8.40;99.90
12089;DHT22;6107;49.078;8.578;2023-04-25T00:32:10;8.40;99.90
12089;DHT22;6107;49.078;8.578;2023-04-25T00:34:35;8.30;99.90
12089;DHT22;6107;49.078;8.578;2023-04-25T00:37:01;8.20;99.90
12089;DHT22;6107;49.078;8.578;2023-04-25T00:39:30;8.40;99.90
12089;DHT22;6107;49.078;8.578;2023-04-25T00:41:55;8.40;99.90
12089;DHT22;6107;49.078;8.578;2023-04-25T00:44:22;8.40;99.90
12089;DHT22;6107;49.078;8.578;2023-04-25T00:46:48;8.50;99.90
12089;DHT22;6107;49.078;8.578;2023-04-25T00:49:17;8.50;99.90
12089;DHT22;6107;49.078;8.578;2023-04-25T00:51:43;8.50;99.90
12089;DHT22;6107;49.078;8.578;2023-04-25T00:54:12;8.50;99.90
12089;DHT22;6107;49.078;8.578;2023-04-25T00:56:39;8.40;99.90
12089;DHT22;6107;49.078;8.578;2023-04-25T00:59:04;8.60;99.90
12089;DHT22;6107;49.078;8.578;2023-04-25T01:01:30;8.60;99.90
12089;DHT22;6107;49.078;8.578;2023-04-25T01:03:58;8.70;99.90
12089;DHT22;6107;49.078;8.578;2023-04-25T01:06:23;8.70;99.90
12089;DHT22;6107;49.078;8.578;2023-04-25T01:08:49;8.40;99.90
12089;DHT22;6107;49.078;8.578;2023-04-25T01:11:14;8.50;99.90
12089;DHT22;6107;49.078;8.578;2023-04-25T01:13:40;8.40;99.90
12089;DHT22;6107;49.078;8.578;2023-04-25T01:16:06;8.50;99.90
12089;DHT22;6107;49.078;8.578;2023-04-25T01:18:31;8.50;99.90
12089;DHT22;6107;49.078;8.578;2023-04-25T01:21:06;8.70;99.90
12089;DHT22;6107;49.078;8.578;2023-04-25T01:23:32;8.60;99.90
12089;DHT22;6107;49.078;8.578;2023-04-25T01:25:58;8.50;99.90
12089;DHT22;6107;49.078;8.578;2023-04-25T01:28:24;8.50;99.90
12089;DHT22;6107;49.078;8.578;2023-04-25T01:30:50;8.50;99.90
12089;DHT22;6107;49.078;8.578;2023-04-25T01:33:17;8.50;99.90
12089;DHT22;6107;49.078;8.578;2023-04-25T01:35:44;8.40;99.90
12089;DHT22;6107;49.078;8.578;2023-04-25T01:38:10;8.50;99.90
12089;DHT22;6107;49.078;8.578;2023-04-25T01:40:39;8.60;99.90
12089;DHT22;6107;49.078;8.578;2023-04-25T01:43:05;8.50;99.90
12089;DHT22;6107;49.078;8.578;2023-04-25T01:45:31;8.60;99.90
12089;DHT22;6107;49.078;8.578;2023-04-25T01:47:56;8.70;99.90
12089;DHT22;6107;49.078;8.578;2023-04-25T01:50:25;8.70;99.90
12089;DHT22;6107;49.078;8.578;2023-04-25T01:52:50;8.70;99.90
12089;DHT22;6107;49.078;8.578;2023-04-25T01:55:16;8.70;99.90
12089;DHT22;6107;49.078;8.578;2023-04-25T01:57:42;8.70;99.90
12089;DHT22;6107;49.078;8.578;2023-04-25T02:00:08;8.60;99.90
12089;DHT22;6107;49.078;8.578;2023-04-25T02:02:34;8.60;99.90
12089;DHT22;6107;49.078;8.578;2023-04-25T02:05:00;8.60;99.90
12089;DHT22;6107;49.078;8.578;2023-04-25T02:07:26;8.60;99.90
12089;DHT22;6107;49.078;8.578;2023-04-25T02:09:52;8.60;99.90
12089;DHT22;6107;49.078;8.578;2023-04-25T02:12:17;8.60;99.90
12089;DHT22;6107;49.078;8.578;2023-04-25T02:14:43;8.60;99.90
12089;DHT22;6107;49.078;8.578;2023-04-25T02:17:08;8.60;99.90
12089;DHT22;6107;49.078;8.578;2023-04-25T02:19:34;8.60;99.90
12089;DHT22;6107;49.078;8.578;2023-04-25T02:21:59;8.60;99.90
12089;DHT22;6107;49.078;8.578;2023-04-25T02:24:25;8.70;99.90
12089;DHT22;6107;49.078;8.578;2023-04-25T02:26:53;8.60;99.90
12089;DHT22;6107;49.078;8.578;2023-04-25T02:29:20;8.40;99.90
12089;DHT22;6107;49.078;8.578;2023-04-25T02:31:46;8.50;99.90
12089;DHT22;6107;49.078;8.578;2023-04-25T02:34:11;8.50;99.90
12089;DHT22;6107;49.078;8.578;2023-04-25T02:36:37;8.50;99.90
12089;DHT22;6107;49.078;8.578;2023-04-25T02:39:02;8.50;99.90
12089;DHT22;6107;49.078;8.578;2023-04-25T02:41:28;8.50;99.90
12089;DHT22;6107;49.078;8.578;2023-04-25T02:43:53;8.50;99.90
12089;DHT22;6107;49.078;8.578;2023-04-25T02:46:20;8.30;99.90
12089;DHT22;6107;49.078;8.578;2023-04-25T02:48:45;8.10;99.90
12089;DHT22;6107;49.078;8.578;2023-04-25T02:51:11;8.20;99.90
12089;DHT22;6107;49.078;8.578;2023-04-25T02:53:36;8.30;99.90
12089;DHT22;6107;49.078;8.578;2023-04-25T02:56:02;8.30;99.90
12089;DHT22;6107;49.078;8.578;2023-04-25T02:58:27;8.30;99.90
12089;DHT22;6107;49.078;8.578;2023-04-25T03:00:53;8.30;99.90
12089;DHT22;6107;49.078;8.578;2023-04-25T03:03:19;8.30;99.90
12089;DHT22;6107;49.078;8.578;2023-04-25T03:05:50;8.30;99.90
12089;DHT22;6107;49.078;8.578;2023-04-25T03:08:16;8.30;99.90
12089;DHT22;6107;49.078;8.578;2023-04-25T03:10:41;8.40;99.90
12089;DHT22;6107;49.078;8.578;2023-04-25T03:13:07;8.30;99.90
12089;DHT22;6107;49.078;8.578;2023-04-25T03:15:33;8.20;99.90
12089;DHT22;6107;49.078;8.578;2023-04-25T03:17:58;8.10;99.90
12089;DHT22;6107;49.078;8.578;2023-04-25T03:20:24;8.20;99.90
12089;DHT22;6107;49.078;8.578;2023-04-25T03:22:50;8.00;99.90
12089;DHT22;6107;49.078;8.578;2023-04-25T03:25:15;8.00;99.90
12089;DHT22;6107;49.078;8.578;2023-04-25T03:27:41;8.00;99.90
12089;DHT22;6107;49.078;8.578;2023-04-25T03:30:07;8.00;99.90
12089;DHT22;6107;49.078;8.578;2023-04-25T03:32:34;8.00;99.90
12089;DHT22;6107;49.078;8.578;2023-04-25T03:35:00;8.10;99.90
12089;DHT22;6107;49.078;8.578;2023-04-25T03:37:25;8.00;99.90
12089;DHT22;6107;49.078;8.578;2023-04-25T03:39:51;7.90;99.90
12089;DHT22;6107;49.078;8.578;2023-04-25T03:42:17;7.80;99.90
12089;DHT22;6107;49.078;8.578;2023-04-25T03:44:43;7.90;99.90
12089;DHT22;6107;49.078;8.578;2023-04-25T03:47:08;7.80;99.90
12089;DHT22;6107;49.078;8.578;2023-04-25T03:49:34;7.90;99.90
12089;DHT22;6107;49.078;8.578;2023-04-25T03:52:01;7.80;99.90
12089;DHT22;6107;49.078;8.578;2023-04-25T03:54:26;7.90;99.90
12089;DHT22;6107;49.078;8.578;2023-04-25T03:56:52;7.90;99.90
12089;DHT22;6107;49.078;8.578;2023-04-25T03:59:18;7.80;99.90
12089;DHT22;6107;49.078;8.578;2023-04-25T04:01:43;7.80;99.90
12089;DHT22;6107;49.078;8.578;2023-04-25T04:04:08;7.80;99.90
12089;DHT22;6107;49.078;8.578;2023-04-25T04:06:34;7.90;99.90
12089;DHT22;6107;49.078;8.578;2023-04-25T04:09:00;8.10;99.90
12089;DHT22;6107;49.078;8.578;2023-04-25T04:11:25;8.00;99.90
12089;DHT22;6107;49.078;8.578;2023-04-25T04:13:51;8.10;99.90
12089;DHT22;6107;49.078;8.578;2023-04-25T04:16:16;7.80;99.90
12089;DHT22;6107;49.078;8.578;2023-04-25T04:18:42;7.70;99.90
12089;DHT22;6107;49.078;8.578;2023-04-25T04:21:07;7.70;99.90
12089;DHT22;6107;49.078;8.578;2023-04-25T04:23:33;7.60;99.90
12089;DHT22;6107;49.078;8.578;2023-04-25T04:25:59;7.90;99.90
12089;DHT22;6107;49.078;8.578;2023-04-25T04:28:25;8.00;99.90
12089;DHT22;6107;49.078;8.578;2023-04-25T04:30:51;8.00;99.90
12089;DHT22;6107;49.078;8.578;2023-04-25T04:33:18;8.00;99.90
12089;DHT22;6107;49.078;8.578;2023-04-25T04:35:46;8.10;99.90
12089;DHT22;6107;49.078;8.578;2023-04-25T04:38:13;7.80;99.90
12089;DHT22;6107;49.078;8.578;2023-04-25T04:40:41;7.90;99.90
12089;DHT22;6107;49.078;8.578;2023-04-25T04:43:08;8.10;99.90
12089;DHT22;6107;49.078;8.578;2023-04-25T04:45:36;8.30;99.90
12089;DHT22;6107;49.078;8.578;2023-04-25T04:48:05;8.40;99.90
12089;DHT22;6107;49.078;8.578;2023-04-25T04:50:30;8.50;99.90
12089;DHT22;6107;49.078;8.578;2023-04-25T04:52:57;8.50;99.90
12089;DHT22;6107;49.078;8.578;2023-04-25T04:55:23;8.40;99.90
12089;DHT22;6107;49.078;8.578;2023-04-25T04:57:48;8.00;99.90
12089;DHT22;6107;49.078;8.578;2023-04-25T05:00:14;8.00;99.90
12089;DHT22;6107;49.078;8.578;2023-04-25T05:02:41;8.10;99.90
12089;DHT22;6107;49.078;8.578;2023-04-25T05:05:06;8.10;99.90
12089;DHT22;6107;49.078;8.578;2023-04-25T05:07:32;8.20;99.90
12089;DHT22;6107;49.078;8.578;2023-04-25T05:09:58;8.50;99.90
12089;DHT22;6107;49.078;8.578;2023-04-25T05:12:23;8.40;99.90
12089;DHT22;6107;49.078;8.578;2023-04-25T05:14:49;8.40;99.90
12089;DHT22;6107;49.078;8.578;2023-04-25T05:17:14;8.40;99.90
12089;DHT22;6107;49.078;8.578;2023-04-25T05:19:40;8.60;99.90
12089;DHT22;6107;49.078;8.578;2023-04-25T05:22:06;8.60;99.90
12089;DHT22;6107;49.078;8.578;2023-04-25T05:24:31;8.70;99.90
12089;DHT22;6107;49.078;8.578;2023-04-25T05:26:57;8.80;99.90
12089;DHT22;6107;49.078;8.578;2023-04-25T05:29:22;8.80;99.90
12089;DHT22;6107;49.078;8.578;2023-04-25T05:31:48;8.90;99.90
12089;DHT22;6107;49.078;8.578;2023-04-25T05:34:14;8.80;99.90
12089;DHT22;6107;49.078;8.578;2023-04-25T05:36:39;8.90;99.90
12089;DHT22;6107;49.078;8.578;2023-04-25T05:39:05;8.90;99.90
12089;DHT22;6107;49.078;8.578;2023-04-25T05:41:31;8.90;99.90
12089;DHT22;6107;49.078;8.578;2023-04-25T05:43:57;9.70;99.90
12089;DHT22;6107;49.078;8.578;2023-04-25T05:46:22;9.30;99.90
12089;DHT22;6107;49.078;8.578;2023-04-25T05:48:48;9.30;99.90
12089;DHT22;6107;49.078;8.578;2023-04-25T05:51:13;9.30;99.90
12089;DHT22;6107;49.078;8.578;2023-04-25T05:53:39;9.40;99.90
12089;DHT22;6107;49.078;8.578;2023-04-25T05:56:04;9.50;99.90
12089;DHT22;6107;49.078;8.578;2023-04-25T05:58:30;9.60;99.90
12089;DHT22;6107;49.078;8.578;2023-04-25T06:00:55;9.80;99.90
12089;DHT22;6107;49.078;8.578;2023-04-25T06:03:21;9.80;99.90
12089;DHT22;6107;49.078;8.578;2023-04-25T06:05:46;9.70;99.90
12089;DHT22;6107;49.078;8.578;2023-04-25T06:08:12;9.50;99.90
12089;DHT22;6107;49.078;8.578;2023-04-25T06:10:38;9.60;99.90
12089;DHT22;6107;49.078;8.578;2023-04-25T06:13:04;9.50;99.90
12089;DHT22;6107;49.078;8.578;2023-04-25T06:15:30;9.50;99.90
12089;DHT22;6107;49.078;8.578;2023-04-25T06:17:58;11.20;99.90
12089;DHT22;6107;49.078;8.578;2023-04-25T06:20:24;10.80;99.90
12089;DHT22;6107;49.078;8.578;2023-04-25T06:22:53;10.20;99.90
12089;DHT22;6107;49.078;8.578;2023-04-25T06:25:18;9.70;99.90
12089;DHT22;6107;49.078;8.578;2023-04-25T06:30:12;9.60;99.90
12089;DHT22;6107;49.078;8.578;2023-04-25T06:32:38;9.70;99.90
12089;DHT22;6107;49.078;8.578;2023-04-25T06:35:04;9.50;99.90
12089;DHT22;6107;49.078;8.578;2023-04-25T06:37:30;9.40;99.90
12089;DHT22;6107;49.078;8.578;2023-04-25T06:39:56;9.30;99.90
12089;DHT22;6107;49.078;8.578;2023-04-25T06:42:21;9.30;99.90
12089;DHT22;6107;49.078;8.578;2023-04-25T06:44:47;9.20;99.90
12089;DHT22;6107;49.078;8.578;2023-04-25T06:47:12;9.30;99.90
12089;DHT22;6107;49.078;8.578;2023-04-25T06:49:38;9.30;99.90
12089;DHT22;6107;49.078;8.578;2023-04-25T06:52:03;9.30;99.90
12089;DHT22;6107;49.078;8.578;2023-04-25T06:54:29;9.40;99.90
12089;DHT22;6107;49.078;8.578;2023-04-25T06:56:55;9.20;99.90
12089;DHT22;6107;49.078;8.578;2023-04-25T06:59:21;9.20;99.90
12089;DHT22;6107;49.078;8.578;2023-04-25T07:01:46;9.20;99.90
12089;DHT22;6107;49.078;8.578;2023-04-25T07:04:12;9.10;99.90
12089;DHT22;6107;49.078;8.578;2023-04-25T07:06:37;10.00;99.90
12089;DHT22;6107;49.078;8.578;2023-04-25T07:09:09;10.20;99.90
12089;DHT22;6107;49.078;8.578;2023-04-25T07:11:38;10.20;99.90
12089;DHT22;6107;49.078;8.578;2023-04-25T07:14:03;9.70;99.90
12089;DHT22;6107;49.078;8.578;2023-04-25T07:16:29;9.80;99.90
12089;DHT22;6107;49.078;8.578;2023-04-25T07:18:54;9.60;99.90
12089;DHT22;6107;49.078;8.578;2023-04-25T07:21:20;9.60;99.90
12089;DHT22;6107;49.078;8.578;2023-04-25T07:23:46;9.50;99.90
12089;DHT22;6107;49.078;8.578;2023-04-25T07:26:11;9.60;99.90
12089;DHT22;6107;49.078;8.578;2023-04-25T07:28:37;9.30;99.90
12089;DHT22;6107;49.078;8.578;2023-04-25T07:31:02;9.40;99.90
12089;DHT22;6107;49.078;8.578;2023-04-25T07:33:29;9.30;99.90
12089;DHT22;6107;49.078;8.578;2023-04-25T07:35:55;9.10;99.90
12089;DHT22;6107;49.078;8.578;2023-04-25T07:38:21;9.10;99.90
12089;DHT22;6107;49.078;8.578;2023-04-25T07:40:47;9.20;99.90
12089;DHT22;6107;49.078;8.578;2023-04-25T07:43:13;9.20;99.90
12089;DHT22;6107;49.078;8.578;2023-04-25T07:45:45;9.40;99.90
12089;DHT22;6107;49.078;8.578;2023-04-25T07:48:11;9.50;99.90
12089;DHT22;6107;49.078;8.578;2023-04-25T07:50:36;9.50;99.90
12089;DHT22;6107;49.078;8.578;2023-04-25T07:53:02;9.60;99.90
12089;DHT22;6107;49.078;8.578;2023-04-25T07:55:27;9.50;99.90
12089;DHT22;6107;49.078;8.578;2023-04-25T07:57:53;9.60;99.90
12089;DHT22;6107;49.078;8.578;2023-04-25T08:00:19;9.70;99.90
12089;DHT22;6107;49.078;8.578;2023-04-25T08:02:44;9.70;99.90
12089;DHT22;6107;49.078;8.578;2023-04-25T08:05:10;9.70;99.90
12089;DHT22;6107;49.078;8.578;2023-04-25T08:07:39;9.70;99.90
12089;DHT22;6107;49.078;8.578;2023-04-25T08:10:06;9.50;99.90
12089;DHT22;6107;49.078;8.578;2023-04-25T08:12:32;9.30;99.90
12089;DHT22;6107;49.078;8.578;2023-04-25T08:14:57;9.40;99.90
12089;DHT22;6107;49.078;8.578;2023-04-25T08:17:23;9.40;99.90
12089;DHT22;6107;49.078;8.578;2023-04-25T08:19:49;9.50;99.90
12089;DHT22;6107;49.078;8.578;2023-04-25T08:22:14;9.30;99.90
12089;DHT22;6107;49.078;8.578;2023-04-25T08:24:41;9.30;99.90
12089;DHT22;6107;49.078;8.578;2023-04-25T08:27:06;9.20;99.90
12089;DHT22;6107;49.078;8.578;2023-04-25T08:29:33;9.20;99.90
12089;DHT22;6107;49.078;8.578;2023-04-25T08:32:00;9.30;99.90
12089;DHT22;6107;49.078;8.578;2023-04-25T08:34:25;9.50;99.90
12089;DHT22;6107;49.078;8.578;2023-04-25T08:36:51;9.50;99.90
12089;DHT22;6107;49.078;8.578;2023-04-25T08:39:17;9.30;99.90
12089;DHT22;6107;49.078;8.578;2023-04-25T08:41:43;9.50;99.90
12089;DHT22;6107;49.078;8.578;2023-04-25T08:44:10;9.50;99.90
12089;DHT22;6107;49.078;8.578;2023-04-25T08:46:38;9.60;99.90
12089;DHT22;6107;49.078;8.578;2023-04-25T08:49:04;9.50;99.90
12089;DHT22;6107;49.078;8.578;2023-04-25T08:51:32;9.60;99.90
12089;DHT22;6107;49.078;8.578;2023-04-25T08:54:11;9.70;99.90
12089;DHT22;6107;49.078;8.578;2023-04-25T08:56:56;9.60;99.90
12089;DHT22;6107;49.078;8.578;2023-04-25T08:59:23;9.30;99.90
12089;DHT22;6107;49.078;8.578;2023-04-25T09:01:49;9.00;99.90
12089;DHT22;6107;49.078;8.578;2023-04-25T09:04:15;8.80;99.90
12089;DHT22;6107;49.078;8.578;2023-04-25T09:06:41;8.60;99.90
12089;DHT22;6107;49.078;8.578;2023-04-25T09:09:08;8.70;99.90
12089;DHT22;6107;49.078;8.578;2023-04-25T09:11:35;9.00;99.90
12089;DHT22;6107;49.078;8.578;2023-04-25T09:14:15;9.10;99.90
12089;DHT22;6107;49.078;8.578;2023-04-25T09:19:40;9.00;99.90
12089;DHT22;6107;49.078;8.578;2023-04-25T09:22:06;8.80;99.90
12089;DHT22;6107;49.078;8.578;2023-04-25T09:24:43;8.80;99.90
12089;DHT22;6107;49.078;8.578;2023-04-25T09:27:10;9.10;99.90
12089;DHT22;6107;49.078;8.578;2023-04-25T09:29:38;11.10;99.90
12089;DHT22;6107;49.078;8.578;2023-04-25T09:32:22;10.80;99.90
12089;DHT22;6107;49.078;8.578;2023-04-25T09:34:50;10.00;99.90
12089;DHT22;6107;49.078;8.578;2023-04-25T09:37:29;10.50;99.90
12089;DHT22;6107;49.078;8.578;2023-04-25T09:39:56;10.20;99.90
12089;DHT22;6107;49.078;8.578;2023-04-25T09:42:25;10.90;99.90
12089;DHT22;6107;49.078;8.578;2023-04-25T09:44:52;10.10;99.90
12089;DHT22;6107;49.078;8.578;2023-04-25T09:47:19;9.80;99.90
12089;DHT22;6107;49.078;8.578;2023-04-25T09:49:46;9.50;99.90
12089;DHT22;6107;49.078;8.578;2023-04-25T09:52:20;9.40;99.90
12089;DHT22;6107;49.078;8.578;2023-04-25T09:54:47;9.30;99.90
12089;DHT22;6107;49.078;8.578;2023-04-25T09:57:23;9.20;99.90
12089;DHT22;6107;49.078;8.578;2023-04-25T09:59:50;8.80;99.90
12089;DHT22;6107;49.078;8.578;2023-04-25T10:02:17;8.60;99.90
12089;DHT22;6107;49.078;8.578;2023-04-25T10:04:48;8.60;99.90
12089;DHT22;6107;49.078;8.578;2023-04-25T10:07:14;8.60;99.90
12089;DHT22;6107;49.078;8.578;2023-04-25T10:09:40;8.60;99.90
12089;DHT22;6107;49.078;8.578;2023-04-25T10:12:07;8.70;99.90
12089;DHT22;6107;49.078;8.578;2023-04-25T10:14:33;8.90;99.90
12089;DHT22;6107;49.078;8.578;2023-04-25T10:16:59;8.90;99.90
12089;DHT22;6107;49.078;8.578;2023-04-25T10:19:26;9.10;99.90
12089;DHT22;6107;49.078;8.578;2023-04-25T10:21:56;9.00;99.90
12089;DHT22;6107;49.078;8.578;2023-04-25T10:24:25;8.90;99.90
12089;DHT22;6107;49.078;8.578;2023-04-25T10:26:51;8.90;99.90
12089;DHT22;6107;49.078;8.578;2023-04-25T10:29:25;8.90;99.90
12089;DHT22;6107;49.078;8.578;2023-04-25T10:31:51;8.90;99.90
12089;DHT22;6107;49.078;8.578;2023-04-25T10:34:17;8.70;99.90
12089;DHT22;6107;49.078;8.578;2023-04-25T10:36:49;8.60;99.90
12089;DHT22;6107;49.078;8.578;2023-04-25T10:39:22;8.50;99.90
12089;DHT22;6107;49.078;8.578;2023-04-25T10:41:55;8.50;99.90
12089;DHT22;6107;49.078;8.578;2023-04-25T10:44:21;8.50;99.90
12089;DHT22;6107;49.078;8.578;2023-04-25T10:46:47;8.50;99.90
12089;DHT22;6107;49.078;8.578;2023-04-25T10:52:24;8.60;99.90
12089;DHT22;6107;49.078;8.578;2023-04-25T10:54:55;8.60;99.90
12089;DHT22;6107;49.078;8.578;2023-04-25T10:57:41;11.30;99.90
12089;DHT22;6107;49.078;8.578;2023-04-25T11:00:07;11.30;99.90
12089;DHT22;6107;49.078;8.578;2023-04-25T11:02:38;9.50;99.90
12089;DHT22;6107;49.078;8.578;2023-04-25T11:05:06;8.90;99.90
12089;DHT22;6107;49.078;8.578;2023-04-25T11:07:38;8.60;99.90
12089;DHT22;6107;49.078;8.578;2023-04-25T11:10:04;8.60;99.90
12089;DHT22;6107;49.078;8.578;2023-04-25T11:12:31;8.50;99.90
12089;DHT22;6107;49.078;8.578;2023-04-25T11:15:05;8.50;99.90
12089;DHT22;6107;49.078;8.578;2023-04-25T11:17:31;8.70;99.90
12089;DHT22;6107;49.078;8.578;2023-04-25T11:19:56;8.70;99.90
12089;DHT22;6107;49.078;8.578;2023-04-25T11:22:22;8.80;99.90
12089;DHT22;6107;49.078;8.578;2023-04-25T11:24:48;8.90;99.90
12089;DHT22;6107;49.078;8.578;2023-04-25T11:27:14;9.20;99.90
12089;DHT22;6107;49.078;8.578;2023-04-25T11:29:40;9.40;99.90
12089;DHT22;6107;49.078;8.578;2023-04-25T11:32:06;9.50;99.90
12089;DHT22;6107;49.078;8.578;2023-04-25T11:34:32;9.30;99.90
12089;DHT22;6107;49.078;8.578;2023-04-25T11:36:59;9.30;99.90
12089;DHT22;6107;49.078;8.578;2023-04-25T11:39:26;9.60;99.90
12089;DHT22;6107;49.078;8.578;2023-04-25T11:41:52;9.70;99.90
12089;DHT22;6107;49.078;8.578;2023-04-25T11:44:19;9.30;99.90
12089;DHT22;6107;49.078;8.578;2023-04-25T11:46:46;9.30;99.90
12089;DHT22;6107;49.078;8.578;2023-04-25T11:49:12;9.40;99.90
12089;DHT22;6107;49.078;8.578;2023-04-25T11:51:42;9.70;99.90
12089;DHT22;6107;49.078;8.578;2023-04-25T11:54:08;9.80;99.90
12089;DHT22;6107;49.078;8.578;2023-04-25T11:56:34;9.90;99.90
12089;DHT22;6107;49.078;8.578;2023-04-25T11:59:01;10.00;99.90
12089;DHT22;6107;49.078;8.578;2023-04-25T12:01:27;10.00;99.90
12089;DHT22;6107;49.078;8.578;2023-04-25T12:03:53;10.10;99.90
12089;DHT22;6107;49.078;8.578;2023-04-25T12:06:19;10.30;99.90
12089;DHT22;6107;49.078;8.578;2023-04-25T12:09:08;10.30;99.90
12089;DHT22;6107;49.078;8.578;2023-04-25T12:11:57;9.90;99.90
12089;DHT22;6107;49.078;8.578;2023-04-25T12:14:31;10.00;99.90
12089;DHT22;6107;49.078;8.578;2023-04-25T12:16:59;10.00;99.90
12089;DHT22;6107;49.078;8.578;2023-04-25T12:19:25;10.00;99.90
12089;DHT22;6107;49.078;8.578;2023-04-25T12:21:52;9.70;99.90
12089;DHT22;6107;49.078;8.578;2023-04-25T12:24:23;9.60;99.90
12089;DHT22;6107;49.078;8.578;2023-04-25T12:29:26;9.40;99.90
12089;DHT22;6107;49.078;8.578;2023-04-25T12:31:53;9.60;99.90
12089;DHT22;6107;49.078;8.578;2023-04-25T12:34:20;9.80;99.90
12089;DHT22;6107;49.078;8.578;2023-04-25T12:36:46;9.80;99.90
12089;DHT22;6107;49.078;8.578;2023-04-25T12:39:23;9.80;99.90
12089;DHT22;6107;49.078;8.578;2023-04-25T12:41:49;9.70;99.90
12089;DHT22;6107;49.078;8.578;2023-04-25T12:44:15;10.00;99.90
12089;DHT22;6107;49.078;8.578;2023-04-25T12:46:41;10.30;99.90
12089;DHT22;6107;49.078;8.578;2023-04-25T12:49:07;10.30;99.90
12089;DHT22;6107;49.078;8.578;2023-04-25T12:51:34;10.20;99.90
12089;DHT22;6107;49.078;8.578;2023-04-25T12:54:01;10.20;99.90
12089;DHT22;6107;49.078;8.578;2023-04-25T12:56:27;10.20;99.90
12089;DHT22;6107;49.078;8.578;2023-04-25T12:58:53;10.20;99.90
12089;DHT22;6107;49.078;8.578;2023-04-25T13:01:19;10.30;99.90
12089;DHT22;6107;49.078;8.578;2023-04-25T13:03:45;10.10;99.90
12089;DHT22;6107;49.078;8.578;2023-04-25T13:06:10;9.90;99.90
12089;DHT22;6107;49.078;8.578;2023-04-25T13:08:36;9.80;99.90
12089;DHT22;6107;49.078;8.578;2023-04-25T13:11:03;9.80;99.90
12089;DHT22;6107;49.078;8.578;2023-04-25T13:13:29;9.90;99.90
12089;DHT22;6107;49.078;8.578;2023-04-25T13:15:55;9.70;99.90
12089;DHT22;6107;49.078;8.578;2023-04-25T13:18:21;9.90;99.90
12089;DHT22;6107;49.078;8.578;2023-04-25T13:20:46;10.10;99.90
12089;DHT22;6107;49.078;8.578;2023-04-25T13:23:12;10.30;99.90
12089;DHT22;6107;49.078;8.578;2023-04-25T13:25:37;10.50;99.90
12089;DHT22;6107;49.078;8.578;2023-04-25T13:28:03;10.40;99.90
12089;DHT22;6107;49.078;8.578;2023-04-25T13:30:28;10.50;99.90
12089;DHT22;6107;49.078;8.578;2023-04-25T13:32:54;10.40;99.90
12089;DHT22;6107;49.078;8.578;2023-04-25T13:35:22;10.30;99.90
12089;DHT22;6107;49.078;8.578;2023-04-25T13:37:48;10.60;99.90
12089;DHT22;6107;49.078;8.578;2023-04-25T13:40:13;10.70;99.90
12089;DHT22;6107;49.078;8.578;2023-04-25T13:42:40;11.00;99.90
12089;DHT22;6107;49.078;8.578;2023-04-25T13:45:07;10.90;99.90
12089;DHT22;6107;49.078;8.578;2023-04-25T13:47:32;11.10;99.90
12089;DHT22;6107;49.078;8.578;2023-04-25T13:49:58;11.40;99.90
12089;DHT22;6107;49.078;8.578;2023-04-25T13:52:24;11.60;99.90
12089;DHT22;6107;49.078;8.578;2023-04-25T13:54:51;12.40;99.90
12089;DHT22;6107;49.078;8.578;2023-04-25T13:57:17;12.40;99.90
12089;DHT22;6107;49.078;8.578;2023-04-25T13:59:42;12.20;99.90
12089;DHT22;6107;49.078;8.578;2023-04-25T14:02:08;12.10;99.90
12089;DHT22;6107;49.078;8.578;2023-04-25T14:04:34;12.30;99.90
12089;DHT22;6107;49.078;8.578;2023-04-25T14:06:59;12.90;99.90
12089;DHT22;6107;49.078;8.578;2023-04-25T14:09:25;13.10;99.90
12089;DHT22;6107;49.078;8.578;2023-04-25T14:11:52;12.60;99.90
12089;DHT22;6107;49.078;8.578;2023-04-25T14:14:18;12.00;99.90
12089;DHT22;6107;49.078;8.578;2023-04-25T14:16:44;11.80;99.90
12089;DHT22;6107;49.078;8.578;2023-04-25T14:19:10;12.10;99.90
12089;DHT22;6107;49.078;8.578;2023-04-25T14:21:35;12.00;99.90
12089;DHT22;6107;49.078;8.578;2023-04-25T14:24:01;12.30;99.90
12089;DHT22;6107;49.078;8.578;2023-04-25T14:26:26;12.00;99.90
12089;DHT22;6107;49.078;8.578;2023-04-25T14:28:52;12.30;99.90
12089;DHT22;6107;49.078;8.578;2023-04-25T14:31:18;12.60;99.90
12089;DHT22;6107;49.078;8.578;2023-04-25T14:33:43;12.40;99.90
12089;DHT22;6107;49.078;8.578;2023-04-25T14:36:09;11.70;99.90
12089;DHT22;6107;49.078;8.578;2023-04-25T14:38:35;11.40;99.90
12089;DHT22;6107;49.078;8.578;2023-04-25T14:41:01;11.70;99.90
12089;DHT22;6107;49.078;8.578;2023-04-25T14:43:26;11.40;99.90
12089;DHT22;6107;49.078;8.578;2023-04-25T14:45:52;11.20;99.90
12089;DHT22;6107;49.078;8.578;2023-04-25T14:48:18;11.20;99.90
12089;DHT22;6107;49.078;8.578;2023-04-25T14:50:45;11.10;99.90
12089;DHT22;6107;49.078;8.578;2023-04-25T14:53:10;11.10;99.90
12089;DHT22;6107;49.078;8.578;2023-04-25T14:55:36;11.30;99.90
12089;DHT22;6107;49.078;8.578;2023-04-25T14:58:01;11.40;99.90
12089;DHT22;6107;49.078;8.578;2023-04-25T15:00:27;11.20;99.90
12089;DHT22;6107;49.078;8.578;2023-04-25T15:02:52;11.30;99.90
12089;DHT22;6107;49.078;8.578;2023-04-25T15:05:18;11.30;99.90
12089;DHT22;6107;49.078;8.578;2023-04-25T15:07:43;11.60;99.90
12089;DHT22;6107;49.078;8.578;2023-04-25T15:10:10;11.70;99.90
12089;DHT22;6107;49.078;8.578;2023-04-25T15:12:42;12.00;99.90
12089;DHT22;6107;49.078;8.578;2023-04-25T15:15:09;12.10;99.90
12089;DHT22;6107;49.078;8.578;2023-04-25T15:17:37;12.20;99.90
12089;DHT22;6107;49.078;8.578;2023-04-25T15:20:04;12.40;99.90
12089;DHT22;6107;49.078;8.578;2023-04-25T15:22:30;12.20;99.90
12089;DHT22;6107;49.078;8.578;2023-04-25T15:24:56;12.00;99.90
12089;DHT22;6107;49.078;8.578;2023-04-25T15:27:22;11.70;99.90
12089;DHT22;6107;49.078;8.578;2023-04-25T15:29:48;11.70;99.90
12089;DHT22;6107;49.078;8.578;2023-04-25T15:32:14;11.70;99.90
12089;DHT22;6107;49.078;8.578;2023-04-25T15:34:39;11.50;99.90
12089;DHT22;6107;49.078;8.578;2023-04-25T15:37:05;11.50;99.90
12089;DHT22;6107;49.078;8.578;2023-04-25T15:39:30;11.40;99.90
12089;DHT22;6107;49.078;8.578;2023-04-25T15:41:56;11.30;99.90
12089;DHT22;6107;49.078;8.578;2023-04-25T15:44:23;11.00;99.90
12089;DHT22;6107;49.078;8.578;2023-04-25T15:46:49;11.00;99.90
12089;DHT22;6107;49.078;8.578;2023-04-25T15:49:15;10.80;99.90
12089;DHT22;6107;49.078;8.578;2023-04-25T15:51:40;10.80;99.90
12089;DHT22;6107;49.078;8.578;2023-04-25T15:54:06;9.90;99.90
12089;DHT22;6107;49.078;8.578;2023-04-25T15:56:32;9.00;99.90
12089;DHT22;6107;49.078;8.578;2023-04-25T15:58:57;8.70;99.90
12089;DHT22;6107;49.078;8.578;2023-04-25T16:01:23;8.50;99.90
12089;DHT22;6107;49.078;8.578;2023-04-25T16:03:50;8.60;99.90